Live Oak, Florida
Current Conditions -  °F | °C
As of 2:35 AM on Sunday 23 Nov 2014 (Local Time) from K24J Reporting Station
Overcast Overcast  
Wind Chill: 66°   Ceiling: 2900
Heat Index: 66°   Visibility: 4mi
Dew Point: 66°   Wind: 7mph
Humidity: 100%   Direction: 100°E
Pressure: 30.05"   Gusts: NA
Location:  30.3°N, 82.98°W
Report Text: K24J 230735Z AUTO 10006KT 4SM FEW001 BKN029 OVC047 19/19 A3005 RMK AO1
Loading
Personal Weather Stations






























Interactive Weather Map New forecast layout! Learn more

10-Day Weather Forecast

Advertisements
Track Severe Weather on mobile